sensor_id;sensor_type;location;lat;lon;timestamp;pressure;altitude;pressure_sealevel;temperature;humidity
13734;BME280;43298;52.560;13.508;2023-06-01T00:02:06;101243.38;;;15.86;100.00
13734;BME280;43298;52.560;13.508;2023-06-01T00:04:32;101240.44;;;15.77;100.00
13734;BME280;43298;52.560;13.508;2023-06-01T00:06:57;101245.66;;;15.77;100.00
13734;BME280;43298;52.560;13.508;2023-06-01T00:09:27;101249.88;;;15.64;100.00
13734;BME280;43298;52.560;13.508;2023-06-01T00:11:53;101240.56;;;15.58;100.00
13734;BME280;43298;52.560;13.508;2023-06-01T00:14:19;101239.75;;;15.58;100.00
13734;BME280;43298;52.560;13.508;2023-06-01T00:16:45;101245.13;;;15.55;100.00
13734;BME280;43298;52.560;13.508;2023-06-01T00:19:11;101241.16;;;15.48;100.00
13734;BME280;43298;52.560;13.508;2023-06-01T00:21:37;101240.91;;;15.37;100.00
13734;BME280;43298;52.560;13.508;2023-06-01T00:24:03;101245.88;;;15.24;100.00
13734;BME280;43298;52.560;13.508;2023-06-01T00:26:29;101239.25;;;15.19;100.00
13734;BME280;43298;52.560;13.508;2023-06-01T00:28:59;101236.66;;;15.01;100.00
13734;BME280;43298;52.560;13.508;2023-06-01T00:31:25;101239.75;;;14.92;100.00
13734;BME280;43298;52.560;13.508;2023-06-01T00:33:51;101238.47;;;14.84;100.00
13734;BME280;43298;52.560;13.508;2023-06-01T00:36:18;101237.41;;;14.71;100.00
13734;BME280;43298;52.560;13.508;2023-06-01T00:38:44;101231.03;;;14.59;100.00
13734;BME280;43298;52.560;13.508;2023-06-01T00:41:10;101229.97;;;14.63;100.00
13734;BME280;43298;52.560;13.508;2023-06-01T00:43:36;101232.34;;;14.68;100.00
13734;BME280;43298;52.560;13.508;2023-06-01T00:46:02;101231.81;;;14.78;100.00
13734;BME280;43298;52.560;13.508;2023-06-01T00:48:28;101239.38;;;14.83;100.00
13734;BME280;43298;52.560;13.508;2023-06-01T00:50:54;101244.28;;;14.89;100.00
13734;BME280;43298;52.560;13.508;2023-06-01T00:53:22;101237.16;;;14.92;100.00
13734;BME280;43298;52.560;13.508;2023-06-01T00:55:49;101240.34;;;14.97;100.00
13734;BME280;43298;52.560;13.508;2023-06-01T00:58:16;101241.56;;;15.07;100.00
13734;BME280;43298;52.560;13.508;2023-06-01T01:00:42;101238.53;;;15.15;100.00
13734;BME280;43298;52.560;13.508;2023-06-01T01:03:07;101228.53;;;15.07;100.00
13734;BME280;43298;52.560;13.508;2023-06-01T01:05:36;101233.91;;;15.04;100.00
13734;BME280;43298;52.560;13.508;2023-06-01T01:08:22;101230.88;;;14.96;100.00
13734;BME280;43298;52.560;13.508;2023-06-01T01:11:18;101228.66;;;14.89;100.00
13734;BME280;43298;52.560;13.508;2023-06-01T01:14:01;101226.97;;;14.88;100.00
13734;BME280;43298;52.560;13.508;2023-06-01T01:16:49;101230.25;;;14.91;100.00
13734;BME280;43298;52.560;13.508;2023-06-01T01:30:31;101224.44;;;14.86;100.00
13734;BME280;43298;52.560;13.508;2023-06-01T01:32:58;101226.59;;;14.78;100.00
13734;BME280;43298;52.560;13.508;2023-06-01T01:35:26;101223.38;;;14.73;100.00
13734;BME280;43298;52.560;13.508;2023-06-01T01:37:54;101217.56;;;14.68;100.00
13734;BME280;43298;52.560;13.508;2023-06-01T01:40:21;101216.66;;;14.69;100.00
13734;BME280;43298;52.560;13.508;2023-06-01T01:42:49;101216.13;;;14.63;100.00
13734;BME280;43298;52.560;13.508;2023-06-01T01:45:16;101217.28;;;14.57;100.00
13734;BME280;43298;52.560;13.508;2023-06-01T01:47:54;101220.63;;;14.59;100.00
13734;BME280;43298;52.560;13.508;2023-06-01T01:50:24;101216.41;;;14.57;100.00
13734;BME280;43298;52.560;13.508;2023-06-01T01:52:52;101211.78;;;14.46;100.00
13734;BME280;43298;52.560;13.508;2023-06-01T01:55:20;101204.25;;;14.40;100.00
13734;BME280;43298;52.560;13.508;2023-06-01T01:57:51;101204.47;;;14.36;100.00
13734;BME280;43298;52.560;13.508;2023-06-01T02:00:18;101207.94;;;14.36;100.00
13734;BME280;43298;52.560;13.508;2023-06-01T02:02:47;101211.75;;;14.29;100.00
13734;BME280;43298;52.560;13.508;2023-06-01T02:05:13;101198.25;;;14.21;100.00
13734;BME280;43298;52.560;13.508;2023-06-01T02:07:39;101202.81;;;14.16;100.00
13734;BME280;43298;52.560;13.508;2023-06-01T02:10:06;101200.53;;;14.10;100.00
13734;BME280;43298;52.560;13.508;2023-06-01T02:12:32;101202.44;;;14.07;100.00
13734;BME280;43298;52.560;13.508;2023-06-01T02:14:58;101203.34;;;14.06;100.00
13734;BME280;43298;52.560;13.508;2023-06-01T02:17:24;101199.31;;;14.00;100.00
13734;BME280;43298;52.560;13.508;2023-06-01T02:19:52;101200.91;;;14.03;100.00
13734;BME280;43298;52.560;13.508;2023-06-01T02:22:18;101204.50;;;14.00;100.00
13734;BME280;43298;52.560;13.508;2023-06-01T02:24:44;101198.91;;;13.91;100.00
13734;BME280;43298;52.560;13.508;2023-06-01T02:27:10;101194.66;;;13.88;100.00
13734;BME280;43298;52.560;13.508;2023-06-01T02:29:36;101193.13;;;13.84;100.00
13734;BME280;43298;52.560;13.508;2023-06-01T02:32:02;101187.41;;;13.78;100.00
13734;BME280;43298;52.560;13.508;2023-06-01T02:34:28;101186.59;;;13.76;100.00
13734;BME280;43298;52.560;13.508;2023-06-01T02:36:54;101184.09;;;13.74;100.00
13734;BME280;43298;52.560;13.508;2023-06-01T02:39:23;101194.53;;;13.73;100.00
13734;BME280;43298;52.560;13.508;2023-06-01T02:41:49;101187.81;;;13.69;100.00
13734;BME280;43298;52.560;13.508;2023-06-01T02:44:15;101190.41;;;13.69;100.00
13734;BME280;43298;52.560;13.508;2023-06-01T02:46:41;101183.47;;;13.69;100.00
13734;BME280;43298;52.560;13.508;2023-06-01T02:49:07;101182.06;;;13.62;100.00
13734;BME280;43298;52.560;13.508;2023-06-01T02:51:33;101181.53;;;13.56;100.00
13734;BME280;43298;52.560;13.508;2023-06-01T02:54:00;101175.34;;;13.58;100.00
13734;BME280;43298;52.560;13.508;2023-06-01T02:56:25;101178.41;;;13.48;100.00
13734;BME280;43298;52.560;13.508;2023-06-01T02:58:52;101184.75;;;13.42;100.00
13734;BME280;43298;52.560;13.508;2023-06-01T03:01:18;101182.94;;;13.44;100.00
13734;BME280;43298;52.560;13.508;2023-06-01T03:03:45;101178.00;;;13.38;100.00
13734;BME280;43298;52.560;13.508;2023-06-01T03:06:11;101174.78;;;13.33;100.00
13734;BME280;43298;52.560;13.508;2023-06-01T03:08:39;101184.31;;;13.33;100.00
13734;BME280;43298;52.560;13.508;2023-06-01T03:11:04;101178.38;;;13.31;100.00
13734;BME280;43298;52.560;13.508;2023-06-01T03:13:31;101178.16;;;13.35;100.00
13734;BME280;43298;52.560;13.508;2023-06-01T03:15:57;101177.31;;;13.35;100.00
13734;BME280;43298;52.560;13.508;2023-06-01T03:18:22;101179.84;;;13.36;100.00
13734;BME280;43298;52.560;13.508;2023-06-01T03:20:48;101184.13;;;13.37;100.00
13734;BME280;43298;52.560;13.508;2023-06-01T03:23:14;101181.38;;;13.40;100.00
13734;BME280;43298;52.560;13.508;2023-06-01T03:25:40;101178.16;;;13.35;100.00
13734;BME280;43298;52.560;13.508;2023-06-01T03:28:07;101191.66;;;13.43;100.00
13734;BME280;43298;52.560;13.508;2023-06-01T03:30:33;101187.34;;;13.42;100.00
13734;BME280;43298;52.560;13.508;2023-06-01T03:32:59;101193.66;;;13.37;100.00
13734;BME280;43298;52.560;13.508;2023-06-01T03:35:25;101190.09;;;13.39;100.00
13734;BME280;43298;52.560;13.508;2023-06-01T03:37:51;101190.25;;;13.36;100.00
13734;BME280;43298;52.560;13.508;2023-06-01T03:40:17;101191.97;;;13.36;100.00
13734;BME280;43298;52.560;13.508;2023-06-01T03:42:46;101194.72;;;13.33;100.00
13734;BME280;43298;52.560;13.508;2023-06-01T03:45:13;101191.06;;;13.37;100.00
13734;BME280;43298;52.560;13.508;2023-06-01T03:47:40;101200.56;;;13.38;100.00
13734;BME280;43298;52.560;13.508;2023-06-01T03:50:08;101196.41;;;13.34;100.00
13734;BME280;43298;52.560;13.508;2023-06-01T03:52:36;101195.44;;;13.36;100.00
13734;BME280;43298;52.560;13.508;2023-06-01T03:55:04;101190.38;;;13.33;100.00
13734;BME280;43298;52.560;13.508;2023-06-01T03:57:37;101192.31;;;13.28;100.00
13734;BME280;43298;52.560;13.508;2023-06-01T04:00:07;101185.44;;;13.27;100.00
13734;BME280;43298;52.560;13.508;2023-06-01T04:02:58;101187.28;;;13.25;100.00
13734;BME280;43298;52.560;13.508;2023-06-01T04:05:25;101187.44;;;13.22;100.00
13734;BME280;43298;52.560;13.508;2023-06-01T04:07:53;101186.63;;;13.20;100.00
13734;BME280;43298;52.560;13.508;2023-06-01T04:10:20;101191.75;;;13.22;100.00
13734;BME280;43298;52.560;13.508;2023-06-01T04:12:48;101193.09;;;13.12;100.00
13734;BME280;43298;52.560;13.508;2023-06-01T04:15:16;101188.81;;;13.11;100.00
13734;BME280;43298;52.560;13.508;2023-06-01T04:17:43;101190.22;;;13.18;100.00
13734;BME280;43298;52.560;13.508;2023-06-01T04:20:11;101189.44;;;13.16;100.00
13734;BME280;43298;52.560;13.508;2023-06-01T04:22:39;101197.69;;;13.25;100.00
13734;BME280;43298;52.560;13.508;2023-06-01T04:25:08;101191.44;;;13.29;100.00
13734;BME280;43298;52.560;13.508;2023-06-01T04:27:35;101209.75;;;13.26;100.00
13734;BME280;43298;52.560;13.508;2023-06-01T04:30:06;101207.47;;;13.19;100.00
13734;BME280;43298;52.560;13.508;2023-06-01T04:32:36;101204.88;;;13.19;100.00
13734;BME280;43298;52.560;13.508;2023-06-01T04:35:06;101207.78;;;13.13;100.00
13734;BME280;43298;52.560;13.508;2023-06-01T04:37:38;101197.69;;;13.25;100.00
13734;BME280;43298;52.560;13.508;2023-06-01T04:40:06;101193.25;;;13.27;100.00
13734;BME280;43298;52.560;13.508;2023-06-01T04:42:39;101203.16;;;13.38;100.00
13734;BME280;43298;52.560;13.508;2023-06-01T04:45:11;101210.66;;;13.62;100.00
13734;BME280;43298;52.560;13.508;2023-06-01T04:47:37;101204.13;;;13.35;100.00
13734;BME280;43298;52.560;13.508;2023-06-01T04:50:10;101213.03;;;13.48;100.00
13734;BME280;43298;52.560;13.508;2023-06-01T04:52:40;101215.06;;;13.60;100.00
13734;BME280;43298;52.560;13.508;2023-06-01T04:55:07;101208.63;;;13.32;100.00
13734;BME280;43298;52.560;13.508;2023-06-01T04:57:34;101218.72;;;13.19;100.00
13734;BME280;43298;52.560;13.508;2023-06-01T05:00:11;101215.28;;;13.37;100.00
13734;BME280;43298;52.560;13.508;2023-06-01T05:02:39;101213.88;;;13.30;100.00
13734;BME280;43298;52.560;13.508;2023-06-01T05:05:07;101210.72;;;13.24;100.00
13734;BME280;43298;52.560;13.508;2023-06-01T05:07:39;101219.50;;;13.40;100.00
13734;BME280;43298;52.560;13.508;2023-06-01T05:10:08;101209.53;;;13.49;100.00
13734;BME280;43298;52.560;13.508;2023-06-01T05:12:35;101215.44;;;13.34;100.00
13734;BME280;43298;52.560;13.508;2023-06-01T05:15:07;101211.97;;;13.15;100.00
13734;BME280;43298;52.560;13.508;2023-06-01T05:17:34;101206.63;;;13.00;100.00
13734;BME280;43298;52.560;13.508;2023-06-01T05:20:00;101207.97;;;12.88;100.00
13734;BME280;43298;52.560;13.508;2023-06-01T05:22:26;101207.53;;;12.99;100.00
13734;BME280;43298;52.560;13.508;2023-06-01T05:24:51;101211.66;;;14.65;100.00
13734;BME280;43298;52.560;13.508;2023-06-01T05:27:18;101211.84;;;13.55;100.00
13734;BME280;43298;52.560;13.508;2023-06-01T05:29:43;101216.19;;;13.18;100.00
13734;BME280;43298;52.560;13.508;2023-06-01T05:32:10;101220.03;;;13.09;100.00
13734;BME280;43298;52.560;13.508;2023-06-01T05:34:36;101219.38;;;12.84;100.00
13734;BME280;43298;52.560;13.508;2023-06-01T05:37:02;101222.66;;;12.69;100.00
13734;BME280;43298;52.560;13.508;2023-06-01T05:39:28;101219.53;;;12.61;100.00
13734;BME280;43298;52.560;13.508;2023-06-01T05:41:58;101224.84;;;12.58;100.00
13734;BME280;43298;52.560;13.508;2023-06-01T05:44:24;101231.03;;;12.56;100.00
13734;BME280;43298;52.560;13.508;2023-06-01T05:46:50;101232.44;;;12.63;100.00
13734;BME280;43298;52.560;13.508;2023-06-01T05:49:19;101228.59;;;12.91;100.00
13734;BME280;43298;52.560;13.508;2023-06-01T05:51:45;101236.47;;;13.10;100.00
13734;BME280;43298;52.560;13.508;2023-06-01T05:54:12;101228.69;;;13.10;100.00
13734;BME280;43298;52.560;13.508;2023-06-01T05:56:38;101234.53;;;13.33;100.00
13734;BME280;43298;52.560;13.508;2023-06-01T05:59:05;101231.38;;;13.27;100.00
13734;BME280;43298;52.560;13.508;2023-06-01T06:01:32;101237.25;;;13.30;100.00
13734;BME280;43298;52.560;13.508;2023-06-01T06:03:58;101236.47;;;13.28;100.00
13734;BME280;43298;52.560;13.508;2023-06-01T06:06:25;101240.09;;;13.63;100.00
13734;BME280;43298;52.560;13.508;2023-06-01T06:08:52;101229.66;;;13.26;100.00
13734;BME280;43298;52.560;13.508;2023-06-01T06:11:18;101228.63;;;13.48;100.00
13734;BME280;43298;52.560;13.508;2023-06-01T06:13:44;101232.31;;;13.63;100.00
13734;BME280;43298;52.560;13.508;2023-06-01T06:16:10;101233.25;;;13.60;100.00
13734;BME280;43298;52.560;13.508;2023-06-01T06:18:36;101232.97;;;14.03;100.00
13734;BME280;43298;52.560;13.508;2023-06-01T06:21:02;101226.78;;;15.41;100.00
13734;BME280;43298;52.560;13.508;2023-06-01T06:23:28;101231.41;;;15.36;100.00
13734;BME280;43298;52.560;13.508;2023-06-01T06:25:55;101227.66;;;15.24;100.00
13734;BME280;43298;52.560;13.508;2023-06-01T06:28:21;101230.16;;;15.58;100.00
13734;BME280;43298;52.560;13.508;2023-06-01T06:30:47;101220.50;;;15.28;100.00
13734;BME280;43298;52.560;13.508;2023-06-01T06:33:13;101226.31;;;15.33;100.00
13734;BME280;43298;52.560;13.508;2023-06-01T06:35:39;101219.41;;;15.80;100.00
13734;BME280;43298;52.560;13.508;2023-06-01T06:38:06;101226.69;;;15.09;100.00
13734;BME280;43298;52.560;13.508;2023-06-01T06:40:32;101225.97;;;15.23;100.00
13734;BME280;43298;52.560;13.508;2023-06-01T06:42:58;101231.78;;;15.61;100.00
13734;BME280;43298;52.560;13.508;2023-06-01T06:45:24;101225.38;;;15.18;100.00
13734;BME280;43298;52.560;13.508;2023-06-01T06:47:50;101231.63;;;15.31;100.00
13734;BME280;43298;52.560;13.508;2023-06-01T06:50:15;101231.09;;;14.75;100.00
13734;BME280;43298;52.560;13.508;2023-06-01T06:52:41;101230.38;;;15.05;100.00
13734;BME280;43298;52.560;13.508;2023-06-01T06:55:08;101218.56;;;15.48;100.00
13734;BME280;43298;52.560;13.508;2023-06-01T06:57:34;101220.75;;;15.56;100.00
13734;BME280;43298;52.560;13.508;2023-06-01T07:00:01;101225.72;;;15.28;100.00
13734;BME280;43298;52.560;13.508;2023-06-01T07:02:29;101220.63;;;15.42;100.00
13734;BME280;43298;52.560;13.508;2023-06-01T07:04:55;101222.47;;;15.07;100.00
13734;BME280;43298;52.560;13.508;2023-06-01T07:07:21;101221.16;;;15.16;100.00
13734;BME280;43298;52.560;13.508;2023-06-01T07:09:46;101222.09;;;15.15;100.00
13734;BME280;43298;52.560;13.508;2023-06-01T07:12:12;101216.59;;;15.03;100.00
13734;BME280;43298;52.560;13.508;2023-06-01T07:14:38;101222.06;;;15.47;100.00
13734;BME280;43298;52.560;13.508;2023-06-01T07:17:04;101219.16;;;16.00;100.00
13734;BME280;43298;52.560;13.508;2023-06-01T07:19:31;101213.53;;;15.76;100.00
13734;BME280;43298;52.560;13.508;2023-06-01T07:22:01;101225.47;;;15.32;100.00
13734;BME280;43298;52.560;13.508;2023-06-01T07:24:27;101222.69;;;15.20;100.00
13734;BME280;43298;52.560;13.508;2023-06-01T07:26:54;101237.75;;;14.97;100.00
13734;BME280;43298;52.560;13.508;2023-06-01T07:29:21;101227.91;;;14.87;100.00
13734;BME280;43298;52.560;13.508;2023-06-01T07:31:50;101232.63;;;15.29;100.00
13734;BME280;43298;52.560;13.508;2023-06-01T07:34:17;101237.56;;;15.50;100.00
13734;BME280;43298;52.560;13.508;2023-06-01T07:36:46;101223.78;;;15.64;100.00
13734;BME280;43298;52.560;13.508;2023-06-01T07:39:13;101220.41;;;16.08;100.00
13734;BME280;43298;52.560;13.508;2023-06-01T07:41:39;101215.97;;;15.64;100.00
13734;BME280;43298;52.560;13.508;2023-06-01T07:44:06;101217.88;;;16.07;100.00
13734;BME280;43298;52.560;13.508;2023-06-01T07:46:33;101217.38;;;16.30;100.00
13734;BME280;43298;52.560;13.508;2023-06-01T07:48:59;101216.66;;;16.28;100.00
13734;BME280;43298;52.560;13.508;2023-06-01T07:51:25;101215.69;;;15.68;100.00
13734;BME280;43298;52.560;13.508;2023-06-01T07:53:51;101221.38;;;16.06;100.00
13734;BME280;43298;52.560;13.508;2023-06-01T07:56:16;101207.34;;;16.38;100.00
13734;BME280;43298;52.560;13.508;2023-06-01T07:58:43;101214.38;;;17.09;100.00
13734;BME280;43298;52.560;13.508;2023-06-01T08:01:10;101206.34;;;16.84;100.00
13734;BME280;43298;52.560;13.508;2023-06-01T08:03:36;101206.94;;;16.89;100.00
13734;BME280;43298;52.560;13.508;2023-06-01T08:06:02;101203.56;;;17.29;100.00
13734;BME280;43298;52.560;13.508;2023-06-01T08:08:31;101205.81;;;17.49;100.00
13734;BME280;43298;52.560;13.508;2023-06-01T08:10:57;101207.22;;;17.26;100.00
13734;BME280;43298;52.560;13.508;2023-06-01T08:13:23;101210.00;;;17.65;100.00
13734;BME280;43298;52.560;13.508;2023-06-01T08:15:52;101199.41;;;17.81;100.00
13734;BME280;43298;52.560;13.508;2023-06-01T08:18:19;101192.72;;;17.63;100.00
13734;BME280;43298;52.560;13.508;2023-06-01T08:20:48;101191.69;;;17.37;100.00
13734;BME280;43298;52.560;13.508;2023-06-01T08:23:14;101196.06;;;17.37;100.00
13734;BME280;43298;52.560;13.508;2023-06-01T08:25:44;101197.66;;;17.94;100.00
13734;BME280;43298;52.560;13.508;2023-06-01T08:28:10;101189.88;;;18.46;100.00
13734;BME280;43298;52.560;13.508;2023-06-01T08:30:36;101198.16;;;18.13;100.00
13734;BME280;43298;52.560;13.508;2023-06-01T08:33:02;101191.16;;;18.90;100.00
13734;BME280;43298;52.560;13.508;2023-06-01T08:35:31;101196.81;;;18.59;99.58
13734;BME280;43298;52.560;13.508;2023-06-01T08:38:02;101183.81;;;18.45;97.04
13734;BME280;43298;52.560;13.508;2023-06-01T08:40:31;101180.88;;;18.23;98.09
13734;BME280;43298;52.560;13.508;2023-06-01T08:43:20;101178.50;;;17.94;97.25
13734;BME280;43298;52.560;13.508;2023-06-01T08:45:46;101179.34;;;18.33;97.85
13734;BME280;43298;52.560;13.508;2023-06-01T08:48:18;101179.28;;;18.97;96.22
13734;BME280;43298;52.560;13.508;2023-06-01T08:50:49;101179.19;;;19.60;95.06
13734;BME280;43298;52.560;13.508;2023-06-01T08:53:18;101181.72;;;19.25;92.18
13734;BME280;43298;52.560;13.508;2023-06-01T08:55:53;101167.63;;;19.26;93.44
13734;BME280;43298;52.560;13.508;2023-06-01T08:58:20;101167.13;;;20.04;91.78
13734;BME280;43298;52.560;13.508;2023-06-01T09:00:50;101174.69;;;19.26;89.38
13734;BME280;43298;52.560;13.508;2023-06-01T09:03:17;101165.59;;;19.78;89.54
13734;BME280;43298;52.560;13.508;2023-06-01T09:05:43;101169.59;;;19.95;88.71
13734;BME280;43298;52.560;13.508;2023-06-01T09:08:09;101162.16;;;19.89;87.63
13734;BME280;43298;52.560;13.508;2023-06-01T09:10:36;101164.38;;;19.71;85.74
13734;BME280;43298;52.560;13.508;2023-06-01T09:13:02;101172.03;;;19.38;89.24
13734;BME280;43298;52.560;13.508;2023-06-01T09:15:29;101160.50;;;20.11;85.30
13734;BME280;43298;52.560;13.508;2023-06-01T09:18:09;101157.50;;;19.81;84.05
13734;BME280;43298;52.560;13.508;2023-06-01T09:20:39;101151.03;;;20.32;83.59
13734;BME280;43298;52.560;13.508;2023-06-01T09:23:06;101156.44;;;19.84;83.75
13734;BME280;43298;52.560;13.508;2023-06-01T09:25:33;101150.19;;;20.08;85.15
13734;BME280;43298;52.560;13.508;2023-06-01T09:28:01;101154.34;;;20.12;83.25
13734;BME280;43298;52.560;13.508;2023-06-01T09:30:43;101147.03;;;20.73;83.07
13734;BME280;43298;52.560;13.508;2023-06-01T09:33:16;101150.28;;;21.20;77.71
13734;BME280;43298;52.560;13.508;2023-06-01T09:35:48;101135.09;;;21.35;78.90
13734;BME280;43298;52.560;13.508;2023-06-01T09:38:26;101143.34;;;20.64;80.46
13734;BME280;43298;52.560;13.508;2023-06-01T09:41:04;101141.16;;;19.89;82.62
13734;BME280;43298;52.560;13.508;2023-06-01T09:43:33;101141.31;;;20.67;82.33
13734;BME280;43298;52.560;13.508;2023-06-01T09:46:10;101131.25;;;20.73;80.75
13734;BME280;43298;52.560;13.508;2023-06-01T09:48:39;101126.22;;;21.47;79.71
13734;BME280;43298;52.560;13.508;2023-06-01T09:51:24;101126.56;;;21.53;76.76
13734;BME280;43298;52.560;13.508;2023-06-01T09:53:54;101131.53;;;22.10;78.10
13734;BME280;43298;52.560;13.508;2023-06-01T09:56:20;101125.28;;;22.11;73.28
13734;BME280;43298;52.560;13.508;2023-06-01T09:58:46;101120.31;;;21.97;75.06
13734;BME280;43298;52.560;13.508;2023-06-01T10:01:13;101128.16;;;20.67;78.50
13734;BME280;43298;52.560;13.508;2023-06-01T10:03:42;101119.94;;;21.05;76.32
13734;BME280;43298;52.560;13.508;2023-06-01T10:06:11;101124.63;;;21.02;77.73
13734;BME280;43298;52.560;13.508;2023-06-01T10:08:38;101123.38;;;21.28;77.22
13734;BME280;43298;52.560;13.508;2023-06-01T10:11:04;101118.66;;;21.96;77.97
13734;BME280;43298;52.560;13.508;2023-06-01T10:13:31;101115.22;;;21.42;75.06
13734;BME280;43298;52.560;13.508;2023-06-01T10:15:56;101110.63;;;21.12;76.70
13734;BME280;43298;52.560;13.508;2023-06-01T10:18:22;101113.38;;;21.11;77.44
13734;BME280;43298;52.560;13.508;2023-06-01T10:20:49;101106.44;;;20.99;77.92
13734;BME280;43298;52.560;13.508;2023-06-01T10:23:14;101108.34;;;21.61;77.49
13734;BME280;43298;52.560;13.508;2023-06-01T10:25:45;101104.25;;;21.68;75.74
13734;BME280;43298;52.560;13.508;2023-06-01T10:28:13;101111.53;;;22.07;74.68
13734;BME280;43298;52.560;13.508;2023-06-01T10:30:40;101104.88;;;21.61;75.72
13734;BME280;43298;52.560;13.508;2023-06-01T10:33:06;101107.69;;;22.11;74.35
13734;BME280;43298;52.560;13.508;2023-06-01T10:40:43;101099.41;;;22.87;69.99
13734;BME280;43298;52.560;13.508;2023-06-01T10:46:33;101099.91;;;22.81;68.35
13734;BME280;43298;52.560;13.508;2023-06-01T10:48:59;101091.53;;;22.46;69.93
13734;BME280;43298;52.560;13.508;2023-06-01T10:51:25;101094.31;;;22.24;69.93
13734;BME280;43298;52.560;13.508;2023-06-01T10:53:54;101081.00;;;23.15;69.41
13734;BME280;43298;52.560;13.508;2023-06-01T10:56:27;101083.59;;;23.55;67.21
13734;BME280;43298;52.560;13.508;2023-06-01T11:01:41;101090.06;;;22.83;66.19
13734;BME280;43298;52.560;13.508;2023-06-01T11:04:07;101082.63;;;23.37;68.75
13734;BME280;43298;52.560;13.508;2023-06-01T11:06:39;101075.94;;;23.62;66.25
13734;BME280;43298;52.560;13.508;2023-06-01T11:09:15;101077.63;;;23.04;66.81
13734;BME280;43298;52.560;13.508;2023-06-01T11:14:15;101079.84;;;23.48;65.55
13734;BME280;43298;52.560;13.508;2023-06-01T11:16:42;101070.81;;;23.41;65.26
13734;BME280;43298;52.560;13.508;2023-06-01T11:19:08;101074.97;;;24.10;64.15
13734;BME280;43298;52.560;13.508;2023-06-01T11:21:43;101070.56;;;22.65;66.54
13734;BME280;43298;52.560;13.508;2023-06-01T11:24:17;101065.38;;;22.54;67.21
13734;BME280;43298;52.560;13.508;2023-06-01T11:26:45;101068.44;;;23.67;65.91
13734;BME280;43298;52.560;13.508;2023-06-01T11:36:57;101046.22;;;23.79;64.87
13734;BME280;43298;52.560;13.508;2023-06-01T11:39:27;101053.31;;;23.97;63.95
13734;BME280;43298;52.560;13.508;2023-06-01T11:42:16;101040.91;;;23.88;65.39
13734;BME280;43298;52.560;13.508;2023-06-01T11:44:57;101037.72;;;23.85;65.57
13734;BME280;43298;52.560;13.508;2023-06-01T11:47:27;101041.88;;;24.06;64.52
13734;BME280;43298;52.560;13.508;2023-06-01T11:49:53;101029.06;;;24.67;63.03
13734;BME280;43298;52.560;13.508;2023-06-01T11:52:20;101031.69;;;24.67;64.68
13734;BME280;43298;52.560;13.508;2023-06-01T11:54:47;101037.44;;;24.07;64.42
13734;BME280;43298;52.560;13.508;2023-06-01T11:57:13;101029.94;;;24.85;66.08
13734;BME280;43298;52.560;13.508;2023-06-01T11:59:46;101032.38;;;24.59;64.11
13734;BME280;43298;52.560;13.508;2023-06-01T12:02:23;101025.84;;;24.63;64.17
13734;BME280;43298;52.560;13.508;2023-06-01T12:05:04;101035.91;;;24.14;64.37
13734;BME280;43298;52.560;13.508;2023-06-01T12:07:48;101034.97;;;23.96;65.41
13734;BME280;43298;52.560;13.508;2023-06-01T12:10:16;101039.78;;;24.65;63.74
13734;BME280;43298;52.560;13.508;2023-06-01T12:12:44;101023.00;;;24.74;63.13
13734;BME280;43298;52.560;13.508;2023-06-01T12:15:16;101015.78;;;24.76;63.93
13734;BME280;43298;52.560;13.508;2023-06-01T12:17:51;101018.94;;;24.43;61.70
13734;BME280;43298;52.560;13.508;2023-06-01T12:20:33;101017.88;;;24.73;62.04
13734;BME280;43298;52.560;13.508;2023-06-01T12:23:02;101019.84;;;24.61;62.59
13734;BME280;43298;52.560;13.508;2023-06-01T12:25:57;101010.69;;;25.27;60.71
13734;BME280;43298;52.560;13.508;2023-06-01T12:28:26;101010.47;;;25.21;61.72
13734;BME280;43298;52.560;13.508;2023-06-01T12:31:15;101009.84;;;24.55;62.63
13734;BME280;43298;52.560;13.508;2023-06-01T12:33:43;101014.63;;;24.42;61.31
13734;BME280;43298;52.560;13.508;2023-06-01T12:36:10;101006.06;;;24.67;60.58
13734;BME280;43298;52.560;13.508;2023-06-01T12:38:50;101001.94;;;25.44;59.04
13734;BME280;43298;52.560;13.508;2023-06-01T12:41:17;101003.50;;;25.55;59.80
13734;BME280;43298;52.560;13.508;2023-06-01T12:43:50;100998.59;;;25.42;59.03
13734;BME280;43298;52.560;13.508;2023-06-01T12:46:19;101005.28;;;25.02;60.55
13734;BME280;43298;52.560;13.508;2023-06-01T12:48:45;100997.66;;;25.86;59.36
13734;BME280;43298;52.560;13.508;2023-06-01T12:51:12;100988.06;;;26.11;58.86
13734;BME280;43298;52.560;13.508;2023-06-01T12:53:39;100994.50;;;25.48;59.71
13734;BME280;43298;52.560;13.508;2023-06-01T12:56:05;100991.56;;;25.51;60.14
13734;BME280;43298;52.560;13.508;2023-06-01T12:58:32;100990.47;;;25.79;58.22
13734;BME280;43298;52.560;13.508;2023-06-01T13:00:58;100991.91;;;25.03;60.45
13734;BME280;43298;52.560;13.508;2023-06-01T13:03:24;100998.50;;;26.13;58.47
13734;BME280;43298;52.560;13.508;2023-06-01T13:05:50;100996.06;;;25.76;59.88
13734;BME280;43298;52.560;13.508;2023-06-01T13:08:16;100990.53;;;26.13;58.84
13734;BME280;43298;52.560;13.508;2023-06-01T13:10:43;100995.03;;;25.69;57.61
13734;BME280;43298;52.560;13.508;2023-06-01T13:13:09;100992.84;;;25.64;59.69